sensor_id;sensor_type;location;lat;lon;timestamp;temperature;humidity
31379;DHT22;61664;48.112;11.662;2023-04-21T00:01:53;10.40;81.70
31379;DHT22;61664;48.112;11.662;2023-04-21T00:04:20;10.40;81.80
31379;DHT22;61664;48.112;11.662;2023-04-21T00:06:48;10.40;82.00
31379;DHT22;61664;48.112;11.662;2023-04-21T00:09:16;10.40;81.80
31379;DHT22;61664;48.112;11.662;2023-04-21T00:11:44;10.40;81.90
31379;DHT22;61664;48.112;11.662;2023-04-21T00:14:11;10.40;82.10
31379;DHT22;61664;48.112;11.662;2023-04-21T00:16:38;10.50;82.10
31379;DHT22;61664;48.112;11.662;2023-04-21T00:19:05;10.50;82.70
31379;DHT22;61664;48.112;11.662;2023-04-21T00:21:33;10.40;82.10
31379;DHT22;61664;48.112;11.662;2023-04-21T00:24:01;10.50;82.20
31379;DHT22;61664;48.112;11.662;2023-04-21T00:26:28;10.50;82.10
31379;DHT22;61664;48.112;11.662;2023-04-21T00:28:54;10.50;82.10
31379;DHT22;61664;48.112;11.662;2023-04-21T00:31:21;10.50;82.00
31379;DHT22;61664;48.112;11.662;2023-04-21T00:33:48;10.50;81.80
31379;DHT22;61664;48.112;11.662;2023-04-21T00:36:15;10.50;81.50
31379;DHT22;61664;48.112;11.662;2023-04-21T00:38:42;10.50;81.60
31379;DHT22;61664;48.112;11.662;2023-04-21T00:41:09;10.50;81.50
31379;DHT22;61664;48.112;11.662;2023-04-21T00:43:36;10.50;81.50
31379;DHT22;61664;48.112;11.662;2023-04-21T00:46:03;10.50;81.60
31379;DHT22;61664;48.112;11.662;2023-04-21T00:48:30;10.50;81.50
31379;DHT22;61664;48.112;11.662;2023-04-21T00:50:57;10.50;81.50
31379;DHT22;61664;48.112;11.662;2023-04-21T00:53:23;10.60;81.60
31379;DHT22;61664;48.112;11.662;2023-04-21T00:55:50;10.50;81.80
31379;DHT22;61664;48.112;11.662;2023-04-21T00:58:18;10.50;82.00
31379;DHT22;61664;48.112;11.662;2023-04-21T01:00:45;10.60;82.00
31379;DHT22;61664;48.112;11.662;2023-04-21T01:03:12;10.60;82.00
31379;DHT22;61664;48.112;11.662;2023-04-21T01:05:39;10.60;82.10
31379;DHT22;61664;48.112;11.662;2023-04-21T01:08:07;10.60;82.10
31379;DHT22;61664;48.112;11.662;2023-04-21T01:10:33;10.60;82.30
31379;DHT22;61664;48.112;11.662;2023-04-21T01:13:00;10.60;82.40
31379;DHT22;61664;48.112;11.662;2023-04-21T01:15:27;10.60;82.30
31379;DHT22;61664;48.112;11.662;2023-04-21T01:17:56;10.70;82.10
31379;DHT22;61664;48.112;11.662;2023-04-21T01:20:23;10.70;81.90
31379;DHT22;61664;48.112;11.662;2023-04-21T01:22:51;10.70;81.80
31379;DHT22;61664;48.112;11.662;2023-04-21T01:25:17;10.70;81.80
31379;DHT22;61664;48.112;11.662;2023-04-21T01:27:47;10.70;81.80
31379;DHT22;61664;48.112;11.662;2023-04-21T01:30:14;10.70;81.80
31379;DHT22;61664;48.112;11.662;2023-04-21T01:32:41;10.70;81.90
31379;DHT22;61664;48.112;11.662;2023-04-21T01:35:08;10.70;81.90
31379;DHT22;61664;48.112;11.662;2023-04-21T01:37:35;10.70;81.50
31379;DHT22;61664;48.112;11.662;2023-04-21T01:40:05;10.70;81.40
31379;DHT22;61664;48.112;11.662;2023-04-21T01:42:38;10.70;81.20
31379;DHT22;61664;48.112;11.662;2023-04-21T01:45:07;10.70;81.20
31379;DHT22;61664;48.112;11.662;2023-04-21T01:47:34;10.70;81.70
31379;DHT22;61664;48.112;11.662;2023-04-21T01:50:01;10.70;81.70
31379;DHT22;61664;48.112;11.662;2023-04-21T01:52:29;10.70;81.70
31379;DHT22;61664;48.112;11.662;2023-04-21T01:54:56;10.70;81.80
31379;DHT22;61664;48.112;11.662;2023-04-21T01:57:23;10.70;81.80
31379;DHT22;61664;48.112;11.662;2023-04-21T01:59:49;10.70;81.80
31379;DHT22;61664;48.112;11.662;2023-04-21T02:02:16;10.70;81.80
31379;DHT22;61664;48.112;11.662;2023-04-21T02:04:43;10.70;81.80
31379;DHT22;61664;48.112;11.662;2023-04-21T02:07:10;10.70;81.70
31379;DHT22;61664;48.112;11.662;2023-04-21T02:09:37;10.70;81.60
31379;DHT22;61664;48.112;11.662;2023-04-21T02:12:04;10.80;81.70
31379;DHT22;61664;48.112;11.662;2023-04-21T02:14:31;10.70;81.70
31379;DHT22;61664;48.112;11.662;2023-04-21T02:16:58;10.80;81.70
31379;DHT22;61664;48.112;11.662;2023-04-21T02:19:25;10.70;81.70
31379;DHT22;61664;48.112;11.662;2023-04-21T02:21:52;10.70;81.60
31379;DHT22;61664;48.112;11.662;2023-04-21T02:24:19;10.70;81.60
31379;DHT22;61664;48.112;11.662;2023-04-21T02:26:46;10.70;81.70
31379;DHT22;61664;48.112;11.662;2023-04-21T02:29:13;10.80;81.80
31379;DHT22;61664;48.112;11.662;2023-04-21T02:31:39;10.80;81.90
31379;DHT22;61664;48.112;11.662;2023-04-21T02:34:24;10.70;81.70
31379;DHT22;61664;48.112;11.662;2023-04-21T02:36:51;10.80;81.70
31379;DHT22;61664;48.112;11.662;2023-04-21T02:39:18;10.80;81.70
31379;DHT22;61664;48.112;11.662;2023-04-21T02:41:45;10.70;81.50
31379;DHT22;61664;48.112;11.662;2023-04-21T02:44:12;10.80;81.40
31379;DHT22;61664;48.112;11.662;2023-04-21T02:46:42;10.80;81.30
31379;DHT22;61664;48.112;11.662;2023-04-21T02:49:09;10.70;80.70
31379;DHT22;61664;48.112;11.662;2023-04-21T02:51:36;10.70;81.10
31379;DHT22;61664;48.112;11.662;2023-04-21T02:54:03;10.70;81.30
31379;DHT22;61664;48.112;11.662;2023-04-21T02:56:30;10.70;81.40
31379;DHT22;61664;48.112;11.662;2023-04-21T02:58:57;10.60;81.20
31379;DHT22;61664;48.112;11.662;2023-04-21T03:01:24;10.60;81.10
31379;DHT22;61664;48.112;11.662;2023-04-21T03:03:51;10.60;81.00
31379;DHT22;61664;48.112;11.662;2023-04-21T03:06:18;10.60;81.00
31379;DHT22;61664;48.112;11.662;2023-04-21T03:08:45;10.60;81.10
31379;DHT22;61664;48.112;11.662;2023-04-21T03:11:12;10.50;81.20
31379;DHT22;61664;48.112;11.662;2023-04-21T03:13:38;10.50;81.30
31379;DHT22;61664;48.112;11.662;2023-04-21T03:16:05;10.40;81.20
31379;DHT22;61664;48.112;11.662;2023-04-21T03:18:34;10.40;81.30
31379;DHT22;61664;48.112;11.662;2023-04-21T03:21:01;10.40;81.40
31379;DHT22;61664;48.112;11.662;2023-04-21T03:23:28;10.40;81.40
31379;DHT22;61664;48.112;11.662;2023-04-21T03:25:55;10.40;81.30
31379;DHT22;61664;48.112;11.662;2023-04-21T03:28:22;10.30;81.10
31379;DHT22;61664;48.112;11.662;2023-04-21T03:30:49;10.30;81.00
31379;DHT22;61664;48.112;11.662;2023-04-21T03:33:16;10.30;81.00
31379;DHT22;61664;48.112;11.662;2023-04-21T03:35:42;10.20;81.10
31379;DHT22;61664;48.112;11.662;2023-04-21T03:38:09;10.20;81.10
31379;DHT22;61664;48.112;11.662;2023-04-21T03:40:36;10.20;81.20
31379;DHT22;61664;48.112;11.662;2023-04-21T03:43:03;10.20;81.30
31379;DHT22;61664;48.112;11.662;2023-04-21T03:45:30;10.10;81.30
31379;DHT22;61664;48.112;11.662;2023-04-21T03:47:57;10.10;81.30
31379;DHT22;61664;48.112;11.662;2023-04-21T03:50:24;10.00;81.20
31379;DHT22;61664;48.112;11.662;2023-04-21T03:52:51;10.00;81.30
31379;DHT22;61664;48.112;11.662;2023-04-21T03:55:18;10.00;81.40
31379;DHT22;61664;48.112;11.662;2023-04-21T03:57:45;10.00;81.40
31379;DHT22;61664;48.112;11.662;2023-04-21T04:00:12;9.90;81.40
31379;DHT22;61664;48.112;11.662;2023-04-21T04:02:40;9.90;81.60
31379;DHT22;61664;48.112;11.662;2023-04-21T04:05:07;9.90;81.60
31379;DHT22;61664;48.112;11.662;2023-04-21T04:07:34;9.90;81.40
31379;DHT22;61664;48.112;11.662;2023-04-21T04:10:01;9.90;81.40
31379;DHT22;61664;48.112;11.662;2023-04-21T04:12:28;9.80;81.50
31379;DHT22;61664;48.112;11.662;2023-04-21T04:14:56;9.80;81.70
31379;DHT22;61664;48.112;11.662;2023-04-21T04:17:23;9.80;81.70
31379;DHT22;61664;48.112;11.662;2023-04-21T04:19:50;9.80;81.80
31379;DHT22;61664;48.112;11.662;2023-04-21T04:22:17;9.80;81.70
31379;DHT22;61664;48.112;11.662;2023-04-21T04:24:44;9.80;81.50
31379;DHT22;61664;48.112;11.662;2023-04-21T04:27:11;9.70;81.50
31379;DHT22;61664;48.112;11.662;2023-04-21T04:29:40;9.70;81.70
31379;DHT22;61664;48.112;11.662;2023-04-21T04:32:09;9.70;81.80
31379;DHT22;61664;48.112;11.662;2023-04-21T04:34:37;9.70;82.10
31379;DHT22;61664;48.112;11.662;2023-04-21T04:37:04;9.70;82.10
31379;DHT22;61664;48.112;11.662;2023-04-21T04:39:32;9.70;82.20
31379;DHT22;61664;48.112;11.662;2023-04-21T04:41:58;9.80;82.20
31379;DHT22;61664;48.112;11.662;2023-04-21T04:44:26;9.70;82.50
31379;DHT22;61664;48.112;11.662;2023-04-21T04:46:54;9.70;82.00
31379;DHT22;61664;48.112;11.662;2023-04-21T04:49:22;9.70;82.10
31379;DHT22;61664;48.112;11.662;2023-04-21T04:51:49;9.70;82.30
31379;DHT22;61664;48.112;11.662;2023-04-21T04:54:17;9.80;82.90
31379;DHT22;61664;48.112;11.662;2023-04-21T04:56:44;9.70;82.40
31379;DHT22;61664;48.112;11.662;2023-04-21T04:59:11;9.80;82.40
31379;DHT22;61664;48.112;11.662;2023-04-21T05:01:38;9.80;82.00
31379;DHT22;61664;48.112;11.662;2023-04-21T05:04:07;9.80;81.90
31379;DHT22;61664;48.112;11.662;2023-04-21T05:06:34;9.80;82.00
31379;DHT22;61664;48.112;11.662;2023-04-21T05:09:01;9.80;82.10
31379;DHT22;61664;48.112;11.662;2023-04-21T05:11:30;9.80;82.30
31379;DHT22;61664;48.112;11.662;2023-04-21T05:13:57;9.80;82.30
31379;DHT22;61664;48.112;11.662;2023-04-21T05:16:24;9.80;82.50
31379;DHT22;61664;48.112;11.662;2023-04-21T05:18:51;9.80;82.90
31379;DHT22;61664;48.112;11.662;2023-04-21T05:21:25;9.90;83.10
31379;DHT22;61664;48.112;11.662;2023-04-21T05:23:55;9.90;83.00
31379;DHT22;61664;48.112;11.662;2023-04-21T05:26:25;9.90;83.10
31379;DHT22;61664;48.112;11.662;2023-04-21T05:28:54;9.90;82.90
31379;DHT22;61664;48.112;11.662;2023-04-21T05:31:22;9.90;83.00
31379;DHT22;61664;48.112;11.662;2023-04-21T05:33:50;10.00;83.00
31379;DHT22;61664;48.112;11.662;2023-04-21T05:36:17;10.00;83.20
31379;DHT22;61664;48.112;11.662;2023-04-21T05:38:50;10.10;83.60
31379;DHT22;61664;48.112;11.662;2023-04-21T05:41:18;10.10;83.70
31379;DHT22;61664;48.112;11.662;2023-04-21T05:43:44;10.20;84.00
31379;DHT22;61664;48.112;11.662;2023-04-21T05:46:13;10.20;84.20
31379;DHT22;61664;48.112;11.662;2023-04-21T05:48:40;10.30;84.70
31379;DHT22;61664;48.112;11.662;2023-04-21T05:51:12;10.40;84.90
31379;DHT22;61664;48.112;11.662;2023-04-21T05:53:42;10.50;84.00
31379;DHT22;61664;48.112;11.662;2023-04-21T05:56:11;10.70;84.70
31379;DHT22;61664;48.112;11.662;2023-04-21T05:58:38;10.70;84.10
31379;DHT22;61664;48.112;11.662;2023-04-21T06:01:05;10.90;84.10
31379;DHT22;61664;48.112;11.662;2023-04-21T06:03:32;10.90;84.40
31379;DHT22;61664;48.112;11.662;2023-04-21T06:06:03;11.00;84.90
31379;DHT22;61664;48.112;11.662;2023-04-21T06:08:31;11.10;84.50
31379;DHT22;61664;48.112;11.662;2023-04-21T06:10:58;11.30;85.50
31379;DHT22;61664;48.112;11.662;2023-04-21T06:13:25;11.40;85.70
31379;DHT22;61664;48.112;11.662;2023-04-21T06:15:54;11.60;85.30
31379;DHT22;61664;48.112;11.662;2023-04-21T06:18:21;11.70;85.00
31379;DHT22;61664;48.112;11.662;2023-04-21T06:20:50;11.90;84.90
31379;DHT22;61664;48.112;11.662;2023-04-21T06:23:17;12.00;84.10
31379;DHT22;61664;48.112;11.662;2023-04-21T06:25:44;12.10;83.70
31379;DHT22;61664;48.112;11.662;2023-04-21T06:28:11;12.20;83.50
31379;DHT22;61664;48.112;11.662;2023-04-21T06:30:39;12.20;83.70
31379;DHT22;61664;48.112;11.662;2023-04-21T06:33:06;12.30;83.30
31379;DHT22;61664;48.112;11.662;2023-04-21T06:35:32;12.40;83.30
31379;DHT22;61664;48.112;11.662;2023-04-21T06:38:01;12.40;83.10
31379;DHT22;61664;48.112;11.662;2023-04-21T06:40:28;12.50;82.80
31379;DHT22;61664;48.112;11.662;2023-04-21T06:42:55;12.60;82.80
31379;DHT22;61664;48.112;11.662;2023-04-21T06:45:21;12.60;82.80
31379;DHT22;61664;48.112;11.662;2023-04-21T06:47:48;12.60;82.90
31379;DHT22;61664;48.112;11.662;2023-04-21T06:50:15;12.70;83.20
31379;DHT22;61664;48.112;11.662;2023-04-21T06:52:42;12.80;83.60
31379;DHT22;61664;48.112;11.662;2023-04-21T06:55:09;12.90;84.40
31379;DHT22;61664;48.112;11.662;2023-04-21T06:57:36;13.00;85.00
31379;DHT22;61664;48.112;11.662;2023-04-21T07:00:04;13.20;85.50
31379;DHT22;61664;48.112;11.662;2023-04-21T07:02:31;13.40;86.00
31379;DHT22;61664;48.112;11.662;2023-04-21T07:04:59;13.60;85.20
31379;DHT22;61664;48.112;11.662;2023-04-21T07:07:25;13.70;84.90
31379;DHT22;61664;48.112;11.662;2023-04-21T07:09:52;13.90;84.80
31379;DHT22;61664;48.112;11.662;2023-04-21T07:12:19;14.00;85.40
31379;DHT22;61664;48.112;11.662;2023-04-21T07:14:46;14.20;85.20
31379;DHT22;61664;48.112;11.662;2023-04-21T07:17:13;14.40;84.40
31379;DHT22;61664;48.112;11.662;2023-04-21T07:19:40;14.60;83.50
31379;DHT22;61664;48.112;11.662;2023-04-21T07:22:07;14.60;83.40
31379;DHT22;61664;48.112;11.662;2023-04-21T07:24:34;14.80;82.70
31379;DHT22;61664;48.112;11.662;2023-04-21T07:27:03;14.80;82.50
31379;DHT22;61664;48.112;11.662;2023-04-21T07:29:29;14.90;82.10
31379;DHT22;61664;48.112;11.662;2023-04-21T07:31:57;14.90;82.00
31379;DHT22;61664;48.112;11.662;2023-04-21T07:34:24;15.00;81.70
31379;DHT22;61664;48.112;11.662;2023-04-21T07:36:51;15.00;81.50
31379;DHT22;61664;48.112;11.662;2023-04-21T07:39:18;15.10;81.60
31379;DHT22;61664;48.112;11.662;2023-04-21T07:41:45;15.20;81.20
31379;DHT22;61664;48.112;11.662;2023-04-21T07:44:13;15.20;81.50
31379;DHT22;61664;48.112;11.662;2023-04-21T07:46:39;15.30;81.80
31379;DHT22;61664;48.112;11.662;2023-04-21T07:49:07;15.40;82.50
31379;DHT22;61664;48.112;11.662;2023-04-21T07:51:34;15.50;82.90
31379;DHT22;61664;48.112;11.662;2023-04-21T07:54:01;15.70;83.20
31379;DHT22;61664;48.112;11.662;2023-04-21T07:56:27;15.90;83.40
31379;DHT22;61664;48.112;11.662;2023-04-21T07:58:54;16.10;82.80
31379;DHT22;61664;48.112;11.662;2023-04-21T08:01:21;16.30;82.70
31379;DHT22;61664;48.112;11.662;2023-04-21T08:03:49;16.40;82.30
31379;DHT22;61664;48.112;11.662;2023-04-21T08:06:16;16.60;82.30
31379;DHT22;61664;48.112;11.662;2023-04-21T08:08:43;16.70;81.40
31379;DHT22;61664;48.112;11.662;2023-04-21T08:11:10;16.80;80.40
31379;DHT22;61664;48.112;11.662;2023-04-21T08:13:37;16.90;79.20
31379;DHT22;61664;48.112;11.662;2023-04-21T08:16:04;16.90;79.10
31379;DHT22;61664;48.112;11.662;2023-04-21T08:18:31;17.00;81.40
31379;DHT22;61664;48.112;11.662;2023-04-21T08:20:58;17.10;84.80
31379;DHT22;61664;48.112;11.662;2023-04-21T08:23:25;17.40;86.20
31379;DHT22;61664;48.112;11.662;2023-04-21T08:25:52;17.70;84.30
31379;DHT22;61664;48.112;11.662;2023-04-21T08:28:19;18.00;82.20
31379;DHT22;61664;48.112;11.662;2023-04-21T08:30:46;18.20;81.90
31379;DHT22;61664;48.112;11.662;2023-04-21T08:33:22;18.50;83.20
31379;DHT22;61664;48.112;11.662;2023-04-21T08:35:49;18.80;77.20
31379;DHT22;61664;48.112;11.662;2023-04-21T08:38:32;19.20;84.10
31379;DHT22;61664;48.112;11.662;2023-04-21T08:40:59;19.60;83.80
31379;DHT22;61664;48.112;11.662;2023-04-21T08:43:28;20.00;85.70
31379;DHT22;61664;48.112;11.662;2023-04-21T08:45:55;20.50;82.80
31379;DHT22;61664;48.112;11.662;2023-04-21T08:48:23;20.90;81.00
31379;DHT22;61664;48.112;11.662;2023-04-21T08:50:53;21.20;79.40
31379;DHT22;61664;48.112;11.662;2023-04-21T08:53:20;21.40;78.10
31379;DHT22;61664;48.112;11.662;2023-04-21T08:55:51;21.50;77.60
31379;DHT22;61664;48.112;11.662;2023-04-21T08:58:36;21.70;74.70
31379;DHT22;61664;48.112;11.662;2023-04-21T09:01:03;21.90;80.50
31379;DHT22;61664;48.112;11.662;2023-04-21T09:03:30;22.30;79.40
31379;DHT22;61664;48.112;11.662;2023-04-21T09:08:25;22.80;78.00
31379;DHT22;61664;48.112;11.662;2023-04-21T09:10:54;23.10;76.70
31379;DHT22;61664;48.112;11.662;2023-04-21T09:13:32;23.30;75.60
31379;DHT22;61664;48.112;11.662;2023-04-21T09:16:03;23.40;67.60
31379;DHT22;61664;48.112;11.662;2023-04-21T09:18:40;23.50;70.60
31379;DHT22;61664;48.112;11.662;2023-04-21T09:21:17;23.40;68.60
31379;DHT22;61664;48.112;11.662;2023-04-21T09:23:52;23.20;61.80
31379;DHT22;61664;48.112;11.662;2023-04-21T09:26:21;23.00;63.50
31379;DHT22;61664;48.112;11.662;2023-04-21T09:28:50;22.80;69.50
31379;DHT22;61664;48.112;11.662;2023-04-21T09:31:20;22.60;70.30
31379;DHT22;61664;48.112;11.662;2023-04-21T09:33:55;22.50;71.30
31379;DHT22;61664;48.112;11.662;2023-04-21T09:36:29;22.50;67.40
31379;DHT22;61664;48.112;11.662;2023-04-21T09:38:59;22.60;75.50
31379;DHT22;61664;48.112;11.662;2023-04-21T09:41:32;22.90;76.80
31379;DHT22;61664;48.112;11.662;2023-04-21T09:43:59;23.20;73.20
31379;DHT22;61664;48.112;11.662;2023-04-21T09:46:33;23.30;70.50
31379;DHT22;61664;48.112;11.662;2023-04-21T09:49:03;23.30;70.00
31379;DHT22;61664;48.112;11.662;2023-04-21T09:51:31;23.30;71.40
31379;DHT22;61664;48.112;11.662;2023-04-21T09:54:19;23.40;72.90
31379;DHT22;61664;48.112;11.662;2023-04-21T09:56:53;23.70;71.70
31379;DHT22;61664;48.112;11.662;2023-04-21T09:59:44;23.70;68.90
31379;DHT22;61664;48.112;11.662;2023-04-21T10:02:12;23.80;63.60
31379;DHT22;61664;48.112;11.662;2023-04-21T10:04:41;23.90;71.80
31379;DHT22;61664;48.112;11.662;2023-04-21T10:07:10;24.00;70.40
31379;DHT22;61664;48.112;11.662;2023-04-21T10:09:48;24.00;70.90
31379;DHT22;61664;48.112;11.662;2023-04-21T10:12:24;24.10;67.80
31379;DHT22;61664;48.112;11.662;2023-04-21T10:14:53;24.30;73.00
31379;DHT22;61664;48.112;11.662;2023-04-21T10:17:25;24.50;72.90
31379;DHT22;61664;48.112;11.662;2023-04-21T10:19:57;24.80;67.80
31379;DHT22;61664;48.112;11.662;2023-04-21T10:22:34;25.00;66.30
31379;DHT22;61664;48.112;11.662;2023-04-21T10:25:03;25.10;62.90
31379;DHT22;61664;48.112;11.662;2023-04-21T10:27:41;25.40;73.60
31379;DHT22;61664;48.112;11.662;2023-04-21T10:30:26;25.80;69.40
31379;DHT22;61664;48.112;11.662;2023-04-21T10:33:04;26.20;63.60
31379;DHT22;61664;48.112;11.662;2023-04-21T10:35:57;26.70;63.80
31379;DHT22;61664;48.112;11.662;2023-04-21T10:38:40;26.90;60.80
31379;DHT22;61664;48.112;11.662;2023-04-21T10:41:28;27.00;60.10
31379;DHT22;61664;48.112;11.662;2023-04-21T10:43:59;27.10;61.30
31379;DHT22;61664;48.112;11.662;2023-04-21T10:46:40;27.30;66.60
31379;DHT22;61664;48.112;11.662;2023-04-21T10:49:24;27.50;71.00
31379;DHT22;61664;48.112;11.662;2023-04-21T10:54:28;28.30;63.00
31379;DHT22;61664;48.112;11.662;2023-04-21T10:56:58;28.50;69.60
31379;DHT22;61664;48.112;11.662;2023-04-21T10:59:28;28.80;67.90
31379;DHT22;61664;48.112;11.662;2023-04-21T11:01:55;29.00;62.50
31379;DHT22;61664;48.112;11.662;2023-04-21T11:04:22;29.20;65.10
31379;DHT22;61664;48.112;11.662;2023-04-21T11:07:09;29.30;64.00
31379;DHT22;61664;48.112;11.662;2023-04-21T11:09:39;29.40;55.50
31379;DHT22;61664;48.112;11.662;2023-04-21T11:12:15;29.50;63.70
31379;DHT22;61664;48.112;11.662;2023-04-21T11:14:45;29.70;58.50
31379;DHT22;61664;48.112;11.662;2023-04-21T11:17:17;29.90;64.60
31379;DHT22;61664;48.112;11.662;2023-04-21T11:19:46;30.20;65.00
31379;DHT22;61664;48.112;11.662;2023-04-21T11:22:24;30.40;65.30
31379;DHT22;61664;48.112;11.662;2023-04-21T11:24:55;30.60;64.50
31379;DHT22;61664;48.112;11.662;2023-04-21T11:27:26;30.80;62.90
31379;DHT22;61664;48.112;11.662;2023-04-21T11:29:54;30.80;59.00
31379;DHT22;61664;48.112;11.662;2023-04-21T11:32:21;30.60;59.00
31379;DHT22;61664;48.112;11.662;2023-04-21T11:34:49;30.30;57.30
31379;DHT22;61664;48.112;11.662;2023-04-21T11:37:26;29.80;56.10
31379;DHT22;61664;48.112;11.662;2023-04-21T11:40:00;29.40;49.40
31379;DHT22;61664;48.112;11.662;2023-04-21T11:42:27;28.90;51.30
31379;DHT22;61664;48.112;11.662;2023-04-21T11:44:55;28.40;55.30
31379;DHT22;61664;48.112;11.662;2023-04-21T11:47:26;27.90;55.00
31379;DHT22;61664;48.112;11.662;2023-04-21T11:50:00;27.30;51.70
31379;DHT22;61664;48.112;11.662;2023-04-21T11:52:32;26.80;50.60
31379;DHT22;61664;48.112;11.662;2023-04-21T11:55:05;26.20;52.10
31379;DHT22;61664;48.112;11.662;2023-04-21T11:57:41;25.70;54.80
31379;DHT22;61664;48.112;11.662;2023-04-21T12:00:10;25.20;56.00
31379;DHT22;61664;48.112;11.662;2023-04-21T12:02:42;24.60;55.80
31379;DHT22;61664;48.112;11.662;2023-04-21T12:05:11;24.20;56.90
31379;DHT22;61664;48.112;11.662;2023-04-21T12:07:45;23.80;57.50
31379;DHT22;61664;48.112;11.662;2023-04-21T12:10:19;23.50;55.60
31379;DHT22;61664;48.112;11.662;2023-04-21T12:12:47;23.20;58.90
31379;DHT22;61664;48.112;11.662;2023-04-21T12:15:19;22.90;59.20
31379;DHT22;61664;48.112;11.662;2023-04-21T12:17:50;22.70;57.20
31379;DHT22;61664;48.112;11.662;2023-04-21T12:20:20;22.50;59.80
31379;DHT22;61664;48.112;11.662;2023-04-21T12:22:49;22.40;60.70
31379;DHT22;61664;48.112;11.662;2023-04-21T12:25:16;22.20;60.40
31379;DHT22;61664;48.112;11.662;2023-04-21T12:27:50;22.10;60.20
31379;DHT22;61664;48.112;11.662;2023-04-21T12:30:23;21.90;58.80
31379;DHT22;61664;48.112;11.662;2023-04-21T12:32:58;21.70;58.90
31379;DHT22;61664;48.112;11.662;2023-04-21T12:35:25;21.60;61.20
31379;DHT22;61664;48.112;11.662;2023-04-21T12:37:52;21.50;61.00
31379;DHT22;61664;48.112;11.662;2023-04-21T12:40:19;21.40;61.60
31379;DHT22;61664;48.112;11.662;2023-04-21T12:42:46;21.30;61.90
31379;DHT22;61664;48.112;11.662;2023-04-21T12:45:14;21.30;62.10
31379;DHT22;61664;48.112;11.662;2023-04-21T12:47:41;21.30;61.80
31379;DHT22;61664;48.112;11.662;2023-04-21T12:50:12;21.20;61.90
31379;DHT22;61664;48.112;11.662;2023-04-21T12:52:39;21.20;62.30
31379;DHT22;61664;48.112;11.662;2023-04-21T12:55:06;21.30;63.30
31379;DHT22;61664;48.112;11.662;2023-04-21T12:57:34;21.40;62.50
31379;DHT22;61664;48.112;11.662;2023-04-21T13:00:01;21.50;62.70
31379;DHT22;61664;48.112;11.662;2023-04-21T13:02:29;21.50;61.60
31379;DHT22;61664;48.112;11.662;2023-04-21T13:05:03;21.50;61.80
31379;DHT22;61664;48.112;11.662;2023-04-21T13:07:33;21.50;62.10
31379;DHT22;61664;48.112;11.662;2023-04-21T13:10:00;21.50;62.70
31379;DHT22;61664;48.112;11.662;2023-04-21T13:12:28;21.60;63.50
31379;DHT22;61664;48.112;11.662;2023-04-21T13:14:54;21.60;63.70
31379;DHT22;61664;48.112;11.662;2023-04-21T13:17:22;21.70;63.70
31379;DHT22;61664;48.112;11.662;2023-04-21T13:19:52;21.80;63.90
31379;DHT22;61664;48.112;11.662;2023-04-21T13:22:19;22.00;65.30
31379;DHT22;61664;48.112;11.662;2023-04-21T13:24:45;22.30;65.90
31379;DHT22;61664;48.112;11.662;2023-04-21T13:27:12;22.60;65.80
31379;DHT22;61664;48.112;11.662;2023-04-21T13:29:39;22.90;65.90
31379;DHT22;61664;48.112;11.662;2023-04-21T13:32:06;23.30;65.40
31379;DHT22;61664;48.112;11.662;2023-04-21T13:34:34;23.60;65.00
31379;DHT22;61664;48.112;11.662;2023-04-21T13:37:01;23.90;64.60
31379;DHT22;61664;48.112;11.662;2023-04-21T13:39:28;24.20;63.70
31379;DHT22;61664;48.112;11.662;2023-04-21T13:41:55;24.50;62.60
31379;DHT22;61664;48.112;11.662;2023-04-21T13:44:23;24.60;61.40
31379;DHT22;61664;48.112;11.662;2023-04-21T13:46:50;24.70;60.50
31379;DHT22;61664;48.112;11.662;2023-04-21T13:49:19;24.80;60.80
31379;DHT22;61664;48.112;11.662;2023-04-21T13:51:46;24.90;61.70
31379;DHT22;61664;48.112;11.662;2023-04-21T13:54:13;25.20;62.30
31379;DHT22;61664;48.112;11.662;2023-04-21T13:56:42;25.50;63.80
31379;DHT22;61664;48.112;11.662;2023-04-21T13:59:09;25.90;64.20
31379;DHT22;61664;48.112;11.662;2023-04-21T14:01:36;26.40;64.90
31379;DHT22;61664;48.112;11.662;2023-04-21T14:04:03;26.90;65.90
31379;DHT22;61664;48.112;11.662;2023-04-21T14:06:30;27.60;66.80
31379;DHT22;61664;48.112;11.662;2023-04-21T14:08:58;28.40;66.30
31379;DHT22;61664;48.112;11.662;2023-04-21T14:11:25;29.10;66.40
31379;DHT22;61664;48.112;11.662;2023-04-21T14:13:52;29.70;64.00
31379;DHT22;61664;48.112;11.662;2023-04-21T14:16:34;30.20;61.50
31379;DHT22;61664;48.112;11.662;2023-04-21T14:19:01;30.70;63.00
31379;DHT22;61664;48.112;11.662;2023-04-21T14:21:28;31.20;62.90
31379;DHT22;61664;48.112;11.662;2023-04-21T14:23:56;31.80;62.20
31379;DHT22;61664;48.112;11.662;2023-04-21T14:26:23;32.40;62.10
31379;DHT22;61664;48.112;11.662;2023-04-21T14:28:50;33.00;62.30
31379;DHT22;61664;48.112;11.662;2023-04-21T14:31:17;33.70;61.50
31379;DHT22;61664;48.112;11.662;2023-04-21T14:33:47;34.30;61.20
31379;DHT22;61664;48.112;11.662;2023-04-21T14:36:14;34.90;60.60
31379;DHT22;61664;48.112;11.662;2023-04-21T14:38:41;35.50;60.10
31379;DHT22;61664;48.112;11.662;2023-04-21T14:41:08;36.10;58.50
31379;DHT22;61664;48.112;11.662;2023-04-21T14:43:35;36.50;58.10
31379;DHT22;61664;48.112;11.662;2023-04-21T14:46:02;37.00;57.90
31379;DHT22;61664;48.112;11.662;2023-04-21T14:48:30;37.50;57.30
31379;DHT22;61664;48.112;11.662;2023-04-21T14:50:58;37.90;55.60
31379;DHT22;61664;48.112;11.662;2023-04-21T14:53:25;38.30;54.70
31379;DHT22;61664;48.112;11.662;2023-04-21T14:55:52;38.60;52.80
31379;DHT22;61664;48.112;11.662;2023-04-21T14:58:20;38.70;51.70
31379;DHT22;61664;48.112;11.662;2023-04-21T15:00:47;38.60;51.30
31379;DHT22;61664;48.112;11.662;2023-04-21T15:03:14;38.60;51.10
31379;DHT22;61664;48.112;11.662;2023-04-21T15:05:41;38.60;51.50
31379;DHT22;61664;48.112;11.662;2023-04-21T15:08:08;38.80;51.80
31379;DHT22;61664;48.112;11.662;2023-04-21T15:10:37;38.90;51.30
31379;DHT22;61664;48.112;11.662;2023-04-21T15:13:04;39.00;50.90
31379;DHT22;61664;48.112;11.662;2023-04-21T15:15:31;39.10;50.00
31379;DHT22;61664;48.112;11.662;2023-04-21T15:17:58;39.10;49.00
31379;DHT22;61664;48.112;11.662;2023-04-21T15:20:25;39.10;49.40
31379;DHT22;61664;48.112;11.662;2023-04-21T15:23:12;39.00;48.60
31379;DHT22;61664;48.112;11.662;2023-04-21T15:25:39;39.00;48.80
31379;DHT22;61664;48.112;11.662;2023-04-21T15:28:06;39.00;48.50
31379;DHT22;61664;48.112;11.662;2023-04-21T15:30:34;39.00;48.70
31379;DHT22;61664;48.112;11.662;2023-04-21T15:33:01;39.10;47.80